sensor_id;sensor_type;location;lat;lon;timestamp;temperature;humidity
47368;DHT22;34646;47.964;7.982;2022-12-18T00:04:29;16.40;65.10
47368;DHT22;34646;47.964;7.982;2022-12-18T00:10:30;16.40;65.10
47368;DHT22;34646;47.964;7.982;2022-12-18T00:16:30;16.30;65.10
47368;DHT22;34646;47.964;7.982;2022-12-18T00:22:33;16.30;65.10
47368;DHT22;34646;47.964;7.982;2022-12-18T00:28:34;16.20;65.00
47368;DHT22;34646;47.964;7.982;2022-12-18T00:34:34;16.20;65.60
47368;DHT22;34646;47.964;7.982;2022-12-18T00:40:35;16.20;65.10
47368;DHT22;34646;47.964;7.982;2022-12-18T00:46:36;16.20;65.10
47368;DHT22;34646;47.964;7.982;2022-12-18T00:52:36;16.10;65.70
47368;DHT22;34646;47.964;7.982;2022-12-18T00:58:39;16.10;65.10
47368;DHT22;34646;47.964;7.982;2022-12-18T01:04:40;16.10;65.10
47368;DHT22;34646;47.964;7.982;2022-12-18T01:10:41;16.10;65.10
47368;DHT22;34646;47.964;7.982;2022-12-18T01:16:42;16.10;65.20
47368;DHT22;34646;47.964;7.982;2022-12-18T01:22:42;16.00;65.10
47368;DHT22;34646;47.964;7.982;2022-12-18T01:28:43;16.00;65.10
47368;DHT22;34646;47.964;7.982;2022-12-18T01:34:44;16.00;65.10
47368;DHT22;34646;47.964;7.982;2022-12-18T01:40:45;15.90;65.10
47368;DHT22;34646;47.964;7.982;2022-12-18T01:46:45;15.90;65.10
47368;DHT22;34646;47.964;7.982;2022-12-18T01:52:52;15.90;65.10
47368;DHT22;34646;47.964;7.982;2022-12-18T01:59:01;15.90;65.10
47368;DHT22;34646;47.964;7.982;2022-12-18T02:05:03;15.80;65.00
47368;DHT22;34646;47.964;7.982;2022-12-18T02:17:23;15.80;65.10
47368;DHT22;34646;47.964;7.982;2022-12-18T02:29:53;15.80;65.10
47368;DHT22;34646;47.964;7.982;2022-12-18T02:35:56;15.70;65.10
47368;DHT22;34646;47.964;7.982;2022-12-18T02:41:59;15.70;65.10
47368;DHT22;34646;47.964;7.982;2022-12-18T02:48:02;15.60;65.10
47368;DHT22;34646;47.964;7.982;2022-12-18T02:54:33;15.60;65.10
47368;DHT22;34646;47.964;7.982;2022-12-18T03:00:43;15.60;65.10
47368;DHT22;34646;47.964;7.982;2022-12-18T03:06:49;15.60;65.10
47368;DHT22;34646;47.964;7.982;2022-12-18T03:13:04;15.60;65.20
47368;DHT22;34646;47.964;7.982;2022-12-18T03:19:14;15.60;65.20
47368;DHT22;34646;47.964;7.982;2022-12-18T03:25:16;15.50;65.10
47368;DHT22;34646;47.964;7.982;2022-12-18T03:31:23;15.50;65.40
47368;DHT22;34646;47.964;7.982;2022-12-18T03:37:25;15.50;65.10
47368;DHT22;34646;47.964;7.982;2022-12-18T03:49:42;15.40;65.10
47368;DHT22;34646;47.964;7.982;2022-12-18T03:55:45;15.40;65.20
47368;DHT22;34646;47.964;7.982;2022-12-18T04:01:50;15.30;65.10
47368;DHT22;34646;47.964;7.982;2022-12-18T04:07:54;15.30;65.20
47368;DHT22;34646;47.964;7.982;2022-12-18T04:13:58;15.30;65.10
47368;DHT22;34646;47.964;7.982;2022-12-18T04:19:58;15.30;65.20
47368;DHT22;34646;47.964;7.982;2022-12-18T04:25:59;15.30;65.20
47368;DHT22;34646;47.964;7.982;2022-12-18T04:32:18;15.20;65.10
47368;DHT22;34646;47.964;7.982;2022-12-18T04:38:21;15.20;65.10
47368;DHT22;34646;47.964;7.982;2022-12-18T04:44:28;15.20;65.20
47368;DHT22;34646;47.964;7.982;2022-12-18T04:50:29;15.20;65.20
47368;DHT22;34646;47.964;7.982;2022-12-18T04:56:31;15.10;65.10
47368;DHT22;34646;47.964;7.982;2022-12-18T05:02:32;15.10;65.10
47368;DHT22;34646;47.964;7.982;2022-12-18T05:08:33;15.10;65.20
47368;DHT22;34646;47.964;7.982;2022-12-18T05:14:34;15.10;65.20
47368;DHT22;34646;47.964;7.982;2022-12-18T05:20:34;15.00;65.20
47368;DHT22;34646;47.964;7.982;2022-12-18T05:26:35;15.00;65.10
47368;DHT22;34646;47.964;7.982;2022-12-18T05:32:36;15.00;65.20
47368;DHT22;34646;47.964;7.982;2022-12-18T05:38:38;15.00;65.20
47368;DHT22;34646;47.964;7.982;2022-12-18T05:44:39;14.90;65.80
47368;DHT22;34646;47.964;7.982;2022-12-18T05:50:41;14.90;65.20
47368;DHT22;34646;47.964;7.982;2022-12-18T05:56:42;14.90;65.20
47368;DHT22;34646;47.964;7.982;2022-12-18T06:02:46;14.90;65.30
47368;DHT22;34646;47.964;7.982;2022-12-18T06:08:48;14.90;65.20
47368;DHT22;34646;47.964;7.982;2022-12-18T06:14:49;14.90;65.30
47368;DHT22;34646;47.964;7.982;2022-12-18T06:20:56;14.90;65.80
47368;DHT22;34646;47.964;7.982;2022-12-18T06:26:57;14.90;65.10
47368;DHT22;34646;47.964;7.982;2022-12-18T06:32:58;15.00;65.00
47368;DHT22;34646;47.964;7.982;2022-12-18T06:38:59;15.00;64.80
47368;DHT22;34646;47.964;7.982;2022-12-18T06:44:59;15.10;64.70
47368;DHT22;34646;47.964;7.982;2022-12-18T06:51:00;15.10;64.60
47368;DHT22;34646;47.964;7.982;2022-12-18T06:57:01;15.20;64.60
47368;DHT22;34646;47.964;7.982;2022-12-18T07:03:02;15.20;64.50
47368;DHT22;34646;47.964;7.982;2022-12-18T07:09:03;15.20;64.40
47368;DHT22;34646;47.964;7.982;2022-12-18T07:15:04;15.30;64.40
47368;DHT22;34646;47.964;7.982;2022-12-18T07:21:07;15.30;64.40
47368;DHT22;34646;47.964;7.982;2022-12-18T07:27:08;15.20;64.20
47368;DHT22;34646;47.964;7.982;2022-12-18T07:33:09;15.30;64.30
47368;DHT22;34646;47.964;7.982;2022-12-18T07:39:11;15.30;64.30
47368;DHT22;34646;47.964;7.982;2022-12-18T07:45:12;15.30;64.10
47368;DHT22;34646;47.964;7.982;2022-12-18T07:51:13;15.40;64.50
47368;DHT22;34646;47.964;7.982;2022-12-18T07:57:14;15.60;64.20
47368;DHT22;34646;47.964;7.982;2022-12-18T08:03:16;15.60;64.20
47368;DHT22;34646;47.964;7.982;2022-12-18T08:09:17;15.70;64.60
47368;DHT22;34646;47.964;7.982;2022-12-18T08:15:17;15.70;64.80
47368;DHT22;34646;47.964;7.982;2022-12-18T08:21:24;15.60;65.10
47368;DHT22;34646;47.964;7.982;2022-12-18T08:27:25;15.60;65.00
47368;DHT22;34646;47.964;7.982;2022-12-18T08:33:26;15.60;65.20
47368;DHT22;34646;47.964;7.982;2022-12-18T08:39:26;15.50;65.30
47368;DHT22;34646;47.964;7.982;2022-12-18T08:45:27;15.50;65.50
47368;DHT22;34646;47.964;7.982;2022-12-18T08:51:28;15.50;65.80
47368;DHT22;34646;47.964;7.982;2022-12-18T08:57:29;15.50;66.00
47368;DHT22;34646;47.964;7.982;2022-12-18T09:03:29;15.40;66.10
47368;DHT22;34646;47.964;7.982;2022-12-18T09:09:30;15.40;66.20
47368;DHT22;34646;47.964;7.982;2022-12-18T09:15:31;15.30;66.30
47368;DHT22;34646;47.964;7.982;2022-12-18T09:21:34;15.20;66.40
47368;DHT22;34646;47.964;7.982;2022-12-18T09:27:35;15.10;66.10
47368;DHT22;34646;47.964;7.982;2022-12-18T09:33:35;15.10;65.70
47368;DHT22;34646;47.964;7.982;2022-12-18T09:39:36;13.40;40.30
47368;DHT22;34646;47.964;7.982;2022-12-18T09:45:44;13.30;59.80
47368;DHT22;34646;47.964;7.982;2022-12-18T09:51:54;14.00;59.30
47368;DHT22;34646;47.964;7.982;2022-12-18T09:58:27;14.40;59.90
47368;DHT22;34646;47.964;7.982;2022-12-18T10:04:30;15.00;59.50
47368;DHT22;34646;47.964;7.982;2022-12-18T10:10:50;15.60;58.80
47368;DHT22;34646;47.964;7.982;2022-12-18T10:17:03;16.10;58.30
47368;DHT22;34646;47.964;7.982;2022-12-18T10:29:27;16.60;58.00
47368;DHT22;34646;47.964;7.982;2022-12-18T10:35:28;17.00;57.70
47368;DHT22;34646;47.964;7.982;2022-12-18T10:41:29;17.10;57.80
47368;DHT22;34646;47.964;7.982;2022-12-18T10:47:33;17.30;57.90
47368;DHT22;34646;47.964;7.982;2022-12-18T10:53:36;17.50;58.10
47368;DHT22;34646;47.964;7.982;2022-12-18T10:59:51;17.60;58.20
47368;DHT22;34646;47.964;7.982;2022-12-18T11:06:05;17.70;58.10
47368;DHT22;34646;47.964;7.982;2022-12-18T11:12:16;17.60;58.40
47368;DHT22;34646;47.964;7.982;2022-12-18T11:18:26;17.60;58.40
47368;DHT22;34646;47.964;7.982;2022-12-18T11:30:34;17.40;58.80
47368;DHT22;34646;47.964;7.982;2022-12-18T11:36:39;17.40;59.40
47368;DHT22;34646;47.964;7.982;2022-12-18T11:49:01;17.60;60.40
47368;DHT22;34646;47.964;7.982;2022-12-18T11:55:16;17.70;61.10
47368;DHT22;34646;47.964;7.982;2022-12-18T12:07:52;17.80;62.80
47368;DHT22;34646;47.964;7.982;2022-12-18T12:20:25;17.90;63.40
47368;DHT22;34646;47.964;7.982;2022-12-18T12:26:42;18.00;63.50
47368;DHT22;34646;47.964;7.982;2022-12-18T12:39:07;17.80;63.70
47368;DHT22;34646;47.964;7.982;2022-12-18T12:45:18;17.70;64.00
47368;DHT22;34646;47.964;7.982;2022-12-18T12:51:38;17.60;64.20
47368;DHT22;34646;47.964;7.982;2022-12-18T12:57:45;17.60;64.40
47368;DHT22;34646;47.964;7.982;2022-12-18T13:04:08;17.60;64.70
47368;DHT22;34646;47.964;7.982;2022-12-18T13:16:24;17.60;65.00
47368;DHT22;34646;47.964;7.982;2022-12-18T13:22:31;17.50;65.10
47368;DHT22;34646;47.964;7.982;2022-12-18T13:34:34;17.50;65.70
47368;DHT22;34646;47.964;7.982;2022-12-18T13:46:50;17.60;66.10
47368;DHT22;34646;47.964;7.982;2022-12-18T13:52:52;17.50;66.40
47368;DHT22;34646;47.964;7.982;2022-12-18T14:05:31;17.40;66.50
47368;DHT22;34646;47.964;7.982;2022-12-18T14:11:32;17.40;66.50
47368;DHT22;34646;47.964;7.982;2022-12-18T14:17:33;17.40;66.60
47368;DHT22;34646;47.964;7.982;2022-12-18T14:23:40;17.40;66.70
47368;DHT22;34646;47.964;7.982;2022-12-18T14:29:43;17.40;66.50
47368;DHT22;34646;47.964;7.982;2022-12-18T14:36:02;17.60;66.60
47368;DHT22;34646;47.964;7.982;2022-12-18T14:42:03;17.70;66.50
47368;DHT22;34646;47.964;7.982;2022-12-18T14:48:08;17.80;66.40
47368;DHT22;34646;47.964;7.982;2022-12-18T14:54:17;17.80;66.00
47368;DHT22;34646;47.964;7.982;2022-12-18T15:00:21;17.70;66.00
47368;DHT22;34646;47.964;7.982;2022-12-18T15:06:38;17.60;65.80
47368;DHT22;34646;47.964;7.982;2022-12-18T15:18:47;17.50;65.80
47368;DHT22;34646;47.964;7.982;2022-12-18T15:24:48;17.50;65.90
47368;DHT22;34646;47.964;7.982;2022-12-18T15:31:01;17.50;66.00
47368;DHT22;34646;47.964;7.982;2022-12-18T15:37:02;17.30;66.10
47368;DHT22;34646;47.964;7.982;2022-12-18T15:43:05;17.30;65.40
47368;DHT22;34646;47.964;7.982;2022-12-18T15:49:26;17.20;64.80
47368;DHT22;34646;47.964;7.982;2022-12-18T15:55:27;17.20;64.30
47368;DHT22;34646;47.964;7.982;2022-12-18T16:01:48;17.30;63.90
47368;DHT22;34646;47.964;7.982;2022-12-18T16:07:49;17.20;59.40
47368;DHT22;34646;47.964;7.982;2022-12-18T16:13:50;16.90;63.10
47368;DHT22;34646;47.964;7.982;2022-12-18T16:19:50;17.30;62.50
47368;DHT22;34646;47.964;7.982;2022-12-18T16:25:51;17.30;62.50
47368;DHT22;34646;47.964;7.982;2022-12-18T16:31:52;17.00;46.40
47368;DHT22;34646;47.964;7.982;2022-12-18T16:37:53;16.70;60.00
47368;DHT22;34646;47.964;7.982;2022-12-18T16:43:54;17.10;59.10
47368;DHT22;34646;47.964;7.982;2022-12-18T16:49:55;17.60;58.50
47368;DHT22;34646;47.964;7.982;2022-12-18T16:55:56;17.50;58.20
47368;DHT22;34646;47.964;7.982;2022-12-18T17:01:56;17.50;58.00
47368;DHT22;34646;47.964;7.982;2022-12-18T17:07:57;17.50;58.10
47368;DHT22;34646;47.964;7.982;2022-12-18T17:13:58;17.40;58.50
47368;DHT22;34646;47.964;7.982;2022-12-18T17:19:58;17.40;58.80
47368;DHT22;34646;47.964;7.982;2022-12-18T17:25:59;17.30;59.20
47368;DHT22;34646;47.964;7.982;2022-12-18T17:32:00;17.30;59.70
47368;DHT22;34646;47.964;7.982;2022-12-18T17:38:00;17.20;60.20
47368;DHT22;34646;47.964;7.982;2022-12-18T17:44:04;17.10;60.70
47368;DHT22;34646;47.964;7.982;2022-12-18T17:50:05;17.00;61.10
47368;DHT22;34646;47.964;7.982;2022-12-18T17:56:06;16.90;61.60
47368;DHT22;34646;47.964;7.982;2022-12-18T18:02:10;16.80;61.70
47368;DHT22;34646;47.964;7.982;2022-12-18T18:08:10;16.70;61.80
47368;DHT22;34646;47.964;7.982;2022-12-18T18:14:20;16.70;62.00
47368;DHT22;34646;47.964;7.982;2022-12-18T18:20:21;16.60;62.00
47368;DHT22;34646;47.964;7.982;2022-12-18T18:26:21;16.60;62.20
47368;DHT22;34646;47.964;7.982;2022-12-18T18:32:23;16.50;62.40
47368;DHT22;34646;47.964;7.982;2022-12-18T18:38:24;16.50;62.40
47368;DHT22;34646;47.964;7.982;2022-12-18T18:44:25;16.50;62.50
47368;DHT22;34646;47.964;7.982;2022-12-18T18:50:25;16.50;62.70
47368;DHT22;34646;47.964;7.982;2022-12-18T18:56:26;16.50;62.70
47368;DHT22;34646;47.964;7.982;2022-12-18T19:02:27;16.50;63.30
47368;DHT22;34646;47.964;7.982;2022-12-18T19:08:30;16.50;63.20
47368;DHT22;34646;47.964;7.982;2022-12-18T19:14:31;16.40;63.80
47368;DHT22;34646;47.964;7.982;2022-12-18T19:20:32;16.50;64.40
47368;DHT22;34646;47.964;7.982;2022-12-18T19:26:33;16.40;64.50
47368;DHT22;34646;47.964;7.982;2022-12-18T19:32:33;16.30;64.60
47368;DHT22;34646;47.964;7.982;2022-12-18T19:38:34;16.30;64.60
47368;DHT22;34646;47.964;7.982;2022-12-18T19:44:35;16.30;64.80
47368;DHT22;34646;47.964;7.982;2022-12-18T19:50:40;16.30;64.80
47368;DHT22;34646;47.964;7.982;2022-12-18T19:56:41;16.20;64.80
47368;DHT22;34646;47.964;7.982;2022-12-18T20:02:41;16.20;65.00
47368;DHT22;34646;47.964;7.982;2022-12-18T20:08:42;16.30;65.10
47368;DHT22;34646;47.964;7.982;2022-12-18T20:14:43;16.30;65.60
47368;DHT22;34646;47.964;7.982;2022-12-18T20:20:44;16.20;64.70
47368;DHT22;34646;47.964;7.982;2022-12-18T20:26:44;16.20;65.00
47368;DHT22;34646;47.964;7.982;2022-12-18T20:32:45;16.10;64.90
47368;DHT22;34646;47.964;7.982;2022-12-18T20:38:46;16.20;64.90
47368;DHT22;34646;47.964;7.982;2022-12-18T20:44:46;16.20;65.30
47368;DHT22;34646;47.964;7.982;2022-12-18T20:50:58;16.10;65.00
47368;DHT22;34646;47.964;7.982;2022-12-18T20:56:59;16.10;65.00
47368;DHT22;34646;47.964;7.982;2022-12-18T21:03:00;16.10;65.00
47368;DHT22;34646;47.964;7.982;2022-12-18T21:09:00;16.10;65.20
47368;DHT22;34646;47.964;7.982;2022-12-18T21:15:04;16.10;64.80
47368;DHT22;34646;47.964;7.982;2022-12-18T21:21:05;16.10;64.80
47368;DHT22;34646;47.964;7.982;2022-12-18T21:27:05;16.10;64.80
47368;DHT22;34646;47.964;7.982;2022-12-18T21:33:06;16.10;64.90
47368;DHT22;34646;47.964;7.982;2022-12-18T21:39:07;16.00;64.30
47368;DHT22;34646;47.964;7.982;2022-12-18T21:45:08;15.90;63.70
47368;DHT22;34646;47.964;7.982;2022-12-18T21:51:09;15.90;63.20
47368;DHT22;34646;47.964;7.982;2022-12-18T21:57:12;15.80;63.00
47368;DHT22;34646;47.964;7.982;2022-12-18T22:03:13;15.90;63.10
47368;DHT22;34646;47.964;7.982;2022-12-18T22:09:16;15.80;63.10
47368;DHT22;34646;47.964;7.982;2022-12-18T22:15:16;15.80;63.10
47368;DHT22;34646;47.964;7.982;2022-12-18T22:21:22;15.80;63.20
47368;DHT22;34646;47.964;7.982;2022-12-18T22:27:24;15.80;63.30
47368;DHT22;34646;47.964;7.982;2022-12-18T22:33:24;15.80;63.40
47368;DHT22;34646;47.964;7.982;2022-12-18T22:39:27;15.80;63.40
47368;DHT22;34646;47.964;7.982;2022-12-18T22:45:28;15.80;63.50
47368;DHT22;34646;47.964;7.982;2022-12-18T22:51:29;15.70;63.60
47368;DHT22;34646;47.964;7.982;2022-12-18T22:57:30;15.70;64.30
47368;DHT22;34646;47.964;7.982;2022-12-18T23:03:34;15.70;63.70
47368;DHT22;34646;47.964;7.982;2022-12-18T23:09:35;15.70;64.40
47368;DHT22;34646;47.964;7.982;2022-12-18T23:15:40;15.60;63.70
47368;DHT22;34646;47.964;7.982;2022-12-18T23:21:41;15.60;63.90
47368;DHT22;34646;47.964;7.982;2022-12-18T23:27:42;15.60;63.90
47368;DHT22;34646;47.964;7.982;2022-12-18T23:33:44;15.60;64.00
47368;DHT22;34646;47.964;7.982;2022-12-18T23:39:44;15.60;64.00
47368;DHT22;34646;47.964;7.982;2022-12-18T23:45:45;15.60;64.10
47368;DHT22;34646;47.964;7.982;2022-12-18T23:51:46;15.60;64.10
47368;DHT22;34646;47.964;7.982;2022-12-18T23:57:46;15.50;64.10
